Time;durP1;ratioP1;P1;durP2;ratioP2;P2;SDS_P1;SDS_P2;PMS_P1;PMS_P2;Temp;Humidity;BMP_temperature;BMP_pressure;BME280_temperature;BME280_humidity;BME280_pressure;Samples;Min_cycle;Max_cycle;Signal;HPM_P1;HPM_P2
2022/11/16 00:01:26;;;;;;;82.10;54.00;;;;;;;5.42;100.00;98900.97;4859945;29;20035;-83
2022/11/16 00:03:53;;;;;;;95.78;56.40;;;;;;;5.53;100.00;98908.34;4859430;29;20029;-83
2022/11/16 00:06:20;;;;;;;92.85;55.85;;;;;;;5.54;100.00;98897.94;4844169;29;20063;-83
2022/11/16 00:11:32;;;;;;;83.22;55.05;;;;;;;5.63;100.00;98895.00;4859878;29;20040;-84
2022/11/16 00:13:57;;;;;;;79.00;52.53;;;;;;;5.64;100.00;98881.16;4859254;29;20034;-83
2022/11/16 00:16:23;;;;;;;83.65;53.15;;;;;;;5.70;100.00;98893.03;4859360;29;20121;-83
2022/11/16 00:18:55;;;;;;;77.07;52.75;;;;;;;5.66;100.00;98881.97;4843533;29;20063;-83
2022/11/16 00:21:20;;;;;;;83.43;54.25;;;;;;;5.70;100.00;98885.28;4870857;29;20060;-83
2022/11/16 00:23:45;;;;;;;108.88;61.03;;;;;;;5.72;100.00;98888.63;4882066;29;20387;-83
2022/11/16 00:26:11;;;;;;;94.03;57.72;;;;;;;5.70;100.00;98877.53;4882090;29;20354;-83
2022/11/16 00:28:37;;;;;;;93.80;57.45;;;;;;;5.81;100.00;98893.44;4882046;29;20487;-83
2022/11/16 00:31:04;;;;;;;103.43;63.17;;;;;;;5.84;100.00;98877.81;4898536;29;20064;-83
2022/11/16 00:33:30;;;;;;;103.20;67.97;;;;;;;5.86;100.00;98873.44;4881862;29;20035;-83
2022/11/16 00:35:55;;;;;;;140.90;79.35;;;;;;;5.90;100.00;98875.00;4898720;29;20032;-83
2022/11/16 00:38:21;;;;;;;134.30;74.03;;;;;;;5.85;100.00;98879.50;4898538;29;20032;-83
2022/11/16 00:40:47;;;;;;;126.00;75.40;;;;;;;5.76;100.00;98880.69;4881586;29;20032;-83
2022/11/16 00:43:12;;;;;;;146.50;83.65;;;;;;;5.79;100.00;98887.50;4898639;29;20024;-83
2022/11/16 00:45:39;;;;;;;171.13;100.00;;;;;;;5.73;100.00;98874.81;4898534;29;20051;-83
2022/11/16 00:48:04;;;;;;;130.70;82.43;;;;;;;5.74;100.00;98884.25;4881346;29;20035;-83
2022/11/16 00:50:30;;;;;;;105.82;71.45;;;;;;;5.75;100.00;98881.59;4898409;29;20024;-83
2022/11/16 00:52:55;;;;;;;110.32;75.03;;;;;;;5.74;100.00;98874.75;4898418;29;20115;-83
2022/11/16 00:55:21;;;;;;;98.25;66.55;;;;;;;5.79;100.00;98879.75;4898296;29;20024;-83
2022/11/16 00:57:47;;;;;;;108.07;70.75;;;;;;;5.79;100.00;98878.91;4898302;29;20033;-83
2022/11/16 01:00:13;;;;;;;106.35;71.70;;;;;;;5.78;100.00;98875.47;4898290;29;20033;-83
2022/11/16 01:02:39;;;;;;;111.80;70.93;;;;;;;5.80;100.00;98878.84;4898330;29;20025;-83
2022/11/16 01:05:06;;;;;;;102.18;68.97;;;;;;;5.76;100.00;98866.94;4881104;29;20024;-83
2022/11/16 01:07:33;;;;;;;107.00;67.90;;;;;;;5.78;100.00;98867.75;4898223;29;20025;-83
2022/11/16 01:09:59;;;;;;;98.60;64.47;;;;;;;5.73;100.00;98867.91;4881254;29;20119;-83
2022/11/16 01:12:24;;;;;;;99.63;68.03;;;;;;;5.73;100.00;98862.75;4881186;29;20115;-83
2022/11/16 01:14:49;;;;;;;99.65;67.40;;;;;;;5.72;100.00;98862.78;4881047;29;20032;-83
2022/11/16 01:17:15;;;;;;;93.13;63.08;;;;;;;5.75;100.00;98866.09;4881249;29;20036;-83
2022/11/16 01:19:40;;;;;;;99.88;66.63;;;;;;;5.81;100.00;98867.59;4880937;29;20040;-83
2022/11/16 01:22:05;;;;;;;102.28;65.85;;;;;;;5.79;100.00;98866.81;4897610;29;20056;-83
2022/11/16 01:24:31;;;;;;;99.55;66.80;;;;;;;5.75;100.00;98858.34;4881067;29;20020;-83
2022/11/16 01:26:57;;;;;;;122.43;78.20;;;;;;;5.79;100.00;98869.41;4880724;29;20574;-83
2022/11/16 01:29:28;;;;;;;96.63;62.83;;;;;;;5.79;100.00;98858.25;4897791;29;20084;-83
2022/11/16 01:31:55;;;;;;;92.53;63.20;;;;;;;5.76;100.00;98865.19;4880687;29;20426;-83
2022/11/16 01:34:20;;;;;;;92.50;61.33;;;;;;;5.73;100.00;98855.00;4897530;29;20490;-83
2022/11/16 01:36:46;;;;;;;95.40;64.43;;;;;;;5.66;100.00;98838.06;4880867;29;20036;-83
2022/11/16 01:39:12;;;;;;;89.75;61.03;;;;;;;5.64;100.00;98833.84;4897312;29;20032;-83
2022/11/16 01:41:39;;;;;;;88.82;60.92;;;;;;;5.66;100.00;98839.78;4880766;29;20020;-83
2022/11/16 01:44:24;;;;;;;88.32;63.13;;;;;;;5.64;100.00;98844.16;4896814;29;20100;-83
2022/11/16 01:46:49;;;;;;;89.45;64.75;;;;;;;5.63;100.00;98839.91;4897033;29;20052;-83
2022/11/16 01:49:19;;;;;;;84.18;60.60;;;;;;;5.62;100.00;98839.06;4897522;29;20117;-83
2022/11/16 01:51:50;;;;;;;93.03;64.20;;;;;;;5.60;100.00;98827.94;4880632;29;20059;-83
2022/11/16 01:54:15;;;;;;;;;;;;;;;5.66;100.00;98839.78;4880977;29;20441;-83
2022/11/16 01:56:44;;;;;;;95.85;61.83;;;;;;;5.65;100.00;98825.22;4897276;29;20002;-83
2022/11/16 01:59:11;;;;;;;91.85;62.53;;;;;;;5.68;100.00;98825.91;4896799;29;20060;-83
2022/11/16 02:01:37;;;;;;;478.58;223.45;;;;;;;5.60;100.00;98803.84;4880435;29;20028;-83
2022/11/16 02:04:02;;;;;;;574.88;307.38;;;;;;;5.57;100.00;98801.41;4880186;29;20035;-83
2022/11/16 02:06:32;;;;;;;134.32;82.68;;;;;;;5.62;100.00;98823.56;4897250;29;20059;-83
2022/11/16 02:11:54;;;;;;;94.90;66.85;;;;;;;5.60;100.00;98833.09;4896888;29;20035;-83
2022/11/16 02:14:38;;;;;;;143.63;89.72;;;;;;;5.56;100.00;98828.13;4880468;29;20029;-84
2022/11/16 02:17:30;;;;;;;133.88;75.45;;;;;;;5.54;100.00;98829.94;4880105;29;20021;-83
2022/11/16 02:20:23;;;;;;;128.75;78.28;;;;;;;5.49;100.00;98824.97;4820549;29;20038;-83
2022/11/16 02:23:07;;;;;;;120.13;71.38;;;;;;;5.50;100.00;98830.06;4820750;29;20483;-83
2022/11/16 02:26:04;;;;;;;104.93;68.93;;;;;;;5.44;100.00;98811.41;4820875;29;20436;-84
2022/11/16 02:28:47;;;;;;;110.78;71.32;;;;;;;5.37;100.00;98817.69;4821083;29;20034;-83
2022/11/16 02:31:19;;;;;;;110.55;70.95;;;;;;;5.36;100.00;98824.59;4820906;29;20042;-83
2022/11/16 02:33:47;;;;;;;112.18;72.90;;;;;;;5.33;100.00;98816.97;4821041;29;20383;-83
2022/11/16 02:36:22;;;;;;;102.97;67.72;;;;;;;5.22;100.00;98803.59;4820542;29;20031;-83
2022/11/16 02:38:59;;;;;;;113.68;73.80;;;;;;;5.29;100.00;98815.41;4805281;29;20035;-83
2022/11/16 02:41:30;;;;;;;138.05;88.35;;;;;;;5.25;100.00;98814.66;4805388;29;20030;-83
2022/11/16 02:44:07;;;;;;;115.35;74.82;;;;;;;5.23;100.00;98810.47;4805049;29;20537;-83
2022/11/16 02:46:38;;;;;;;140.00;88.93;;;;;;;5.24;100.00;98815.56;4820610;29;20034;-83
2022/11/16 02:49:09;;;;;;;130.27;82.85;;;;;;;5.23;100.00;98815.66;4820365;29;20062;-83
2022/11/16 02:51:36;;;;;;;124.30;79.22;;;;;;;5.19;100.00;98811.50;4820666;29;20319;-83
2022/11/16 02:54:07;;;;;;;139.63;82.32;;;;;;;5.09;100.00;98800.66;4805111;29;20026;-83
2022/11/16 02:56:59;;;;;;;154.13;88.00;;;;;;;5.19;100.00;98817.50;4834862;29;20088;-83
2022/11/16 02:59:32;;;;;;;127.78;79.55;;;;;;;5.18;100.00;98813.25;4900543;29;20031;-83
2022/11/16 03:01:57;;;;;;;128.52;79.15;;;;;;;5.14;100.00;98819.41;4883175;29;20028;-83
2022/11/16 03:04:39;;;;;;;123.18;78.68;;;;;;;5.09;100.00;98816.16;4900336;29;20035;-83
2022/11/16 03:07:07;;;;;;;117.13;74.85;;;;;;;4.97;100.00;98806.28;4883273;29;20036;-83
2022/11/16 03:09:36;;;;;;;114.85;70.57;;;;;;;5.00;100.00;98809.59;4883329;29;20119;-83
2022/11/16 03:12:07;;;;;;;111.40;68.70;;;;;;;4.86;100.00;98793.78;4899918;29;20156;-83
2022/11/16 03:14:56;;;;;;;105.18;65.28;;;;;;;4.89;100.00;98821.22;4900424;29;20032;-83
2022/11/16 03:17:29;;;;;;;79.20;52.70;;;;;;;4.81;100.00;98815.50;4883359;29;20048;-83
2022/11/16 03:20:03;;;;;;;78.47;51.28;;;;;;;4.80;100.00;98827.53;4882927;29;20377;-86
2022/11/16 03:22:43;;;;;;;79.78;52.60;;;;;;;4.77;100.00;98822.50;4900015;29;20088;-83
2022/11/16 03:25:11;;;;;;;72.38;49.08;;;;;;;4.68;100.00;98817.69;4883083;29;20020;-83
2022/11/16 03:27:40;;;;;;;64.97;46.35;;;;;;;4.72;100.00;98830.41;4900282;29;20381;-83
2022/11/16 03:30:19;;;;;;;68.55;46.97;;;;;;;4.68;100.00;98821.09;4899754;29;20118;-85
2022/11/16 03:32:48;;;;;;;65.47;43.70;;;;;;;4.62;100.00;98813.56;4883008;29;20036;-85
2022/11/16 03:35:22;;;;;;;69.22;45.20;;;;;;;4.60;100.00;98815.38;4899834;29;20036;-85
2022/11/16 03:37:50;;;;;;;71.80;46.63;;;;;;;4.52;100.00;98801.06;4900022;29;20028;-85
2022/11/16 03:40:18;;;;;;;67.07;45.10;;;;;;;4.55;100.00;98812.13;4899412;29;20080;-85
2022/11/16 03:42:44;;;;;;;67.53;43.97;;;;;;;4.52;100.00;98812.22;4899937;29;20400;-85
2022/11/16 03:45:12;;;;;;;75.63;47.60;;;;;;;4.55;100.00;98806.09;4878069;29;20083;-83
2022/11/16 03:47:40;;;;;;;67.30;45.67;;;;;;;4.53;100.00;98802.75;4878366;29;20093;-83
2022/11/16 03:50:05;;;;;;;81.63;50.72;;;;;;;4.53;100.00;98792.44;4862453;29;20537;-83
2022/11/16 03:52:31;;;;;;;71.70;45.92;;;;;;;4.55;100.00;98795.78;4878710;29;20092;-83
2022/11/16 03:54:57;;;;;;;76.45;48.45;;;;;;;4.54;100.00;98781.22;4862586;29;20561;-83
2022/11/16 03:57:22;;;;;;;67.18;45.60;;;;;;;4.57;100.00;98789.69;4878194;29;20036;-83
2022/11/16 03:59:47;;;;;;;70.90;46.28;;;;;;;4.54;100.00;98791.53;4878382;29;20044;-83
2022/11/16 04:02:13;;;;;;;75.65;48.85;;;;;;;4.54;100.00;98786.38;4862386;29;20021;-83
2022/11/16 04:29:17;;;;;;;77.32;45.13;;;;;;;4.40;100.00;98749.03;4898770;29;20044;-83
2022/11/16 04:39:57;;;;;;;71.35;42.95;;;;;;;4.48;100.00;98759.94;4898692;29;20036;-85
2022/11/16 04:42:23;;;;;;;79.40;44.83;;;;;;;4.44;100.00;98752.34;4898584;29;20024;-83
2022/11/16 04:47:32;;;;;;;79.03;44.80;;;;;;;4.48;100.00;98752.19;4898849;29;20043;-83
2022/11/16 04:49:57;;;;;;;86.15;47.17;;;;;;;4.41;100.00;98737.81;4898433;29;20028;-83
2022/11/16 04:52:22;;;;;;;120.35;58.40;;;;;;;4.54;100.00;98755.44;4898023;29;20073;-84
2022/11/16 04:54:48;;;;;;;84.32;47.67;;;;;;;4.53;100.00;98753.75;4881499;29;20020;-83
2022/11/16 04:57:13;;;;;;;96.97;52.67;;;;;;;4.48;100.00;98741.03;4881343;29;20119;-83
2022/11/16 04:59:38;;;;;;;117.15;68.38;;;;;;;4.49;100.00;98738.38;4881394;29;20036;-83
2022/11/16 05:02:07;;;;;;;116.95;66.07;;;;;;;4.50;100.00;98739.22;4898060;29;20051;-83
2022/11/16 05:04:33;;;;;;;92.22;52.47;;;;;;;4.58;100.00;98741.53;4881244;29;20053;-83
2022/11/16 05:06:58;;;;;;;86.80;53.33;;;;;;;4.58;100.00;98747.53;4898586;29;20032;-83
2022/11/16 05:09:23;;;;;;;102.80;47.80;;;;;;;4.55;100.00;98737.34;4897999;29;20031;-83
2022/11/16 05:11:49;;;;;;;90.15;51.90;;;;;;;4.56;100.00;98736.44;4898213;29;20088;-84
2022/11/16 05:14:14;;;;;;;93.38;51.95;;;;;;;4.55;100.00;98731.31;4880986;29;20032;-83
2022/11/16 05:16:39;;;;;;;91.07;48.45;;;;;;;4.56;100.00;98726.13;4897884;29;20024;-83
2022/11/16 05:21:49;;;;;;;136.88;98.50;;;;;;;4.58;100.00;98718.31;4898034;29;20059;-83
2022/11/16 05:24:32;;;;;;;104.38;62.78;;;;;;;4.62;100.00;98725.88;4897679;29;20384;-83
2022/11/16 05:26:59;;;;;;;94.97;51.00;;;;;;;4.61;100.00;98731.13;4880868;29;20484;-84
2022/11/16 05:29:25;;;;;;;92.32;48.40;;;;;;;4.61;100.00;98720.78;4848927;29;20045;-83
2022/11/16 05:31:50;;;;;;;91.43;48.55;;;;;;;4.51;100.00;98704.84;4897494;29;20037;-84
2022/11/16 05:34:17;;;;;;;90.43;47.47;;;;;;;4.68;100.00;98727.41;4880784;29;20051;-84
2022/11/16 05:36:44;;;;;;;87.88;45.33;;;;;;;4.74;100.00;98735.75;4880895;29;20123;-84
2022/11/16 05:39:10;;;;;;;94.63;46.08;;;;;;;4.74;100.00;98722.84;4880613;29;20469;-84
2022/11/16 05:41:36;;;;;;;92.63;50.58;;;;;;;4.80;100.00;98726.94;4897468;29;20028;-84
2022/11/16 05:44:01;;;;;;;83.70;43.22;;;;;;;4.76;100.00;98717.63;4897707;29;20377;-83
2022/11/16 05:46:27;;;;;;;95.82;49.00;;;;;;;4.70;100.00;98702.38;4897015;29;20523;-83
2022/11/16 05:48:52;;;;;;;87.13;43.15;;;;;;;4.80;100.00;98724.34;4897553;29;20035;-84
2022/11/16 05:51:18;;;;;;;89.35;44.92;;;;;;;4.84;100.00;98719.91;4880404;29;20035;-84
2022/11/16 05:53:43;;;;;;;79.78;41.92;;;;;;;4.86;100.00;98726.72;4897401;29;20040;-84
2022/11/16 05:56:09;;;;;;;84.35;46.28;;;;;;;4.80;100.00;98701.13;4897146;29;20028;-84
2022/11/16 05:58:35;;;;;;;84.47;45.95;;;;;;;4.85;100.00;98713.88;4897304;29;20032;-84
2022/11/16 06:01:01;;;;;;;79.53;43.55;;;;;;;4.84;100.00;98710.44;4880438;29;20096;-84
2022/11/16 06:03:30;;;;;;;111.10;59.30;;;;;;;4.89;100.00;98715.44;4897470;29;20029;-84
2022/11/16 06:05:56;;;;;;;82.07;42.58;;;;;;;4.90;100.00;98714.53;4897448;29;20028;-84
2022/11/16 06:08:21;;;;;;;89.45;43.53;;;;;;;4.92;100.00;98723.03;4897032;29;20047;-84
2022/11/16 06:10:47;;;;;;;84.07;42.22;;;;;;;4.88;100.00;98704.25;4880294;29;20456;-84
2022/11/16 06:13:12;;;;;;;84.55;43.63;;;;;;;4.91;100.00;98709.31;4879913;29;20446;-84
2022/11/16 06:15:38;;;;;;;67.18;37.65;;;;;;;4.98;100.00;98721.09;4896999;29;20441;-84
2022/11/16 06:18:05;;;;;;;81.03;43.35;;;;;;;5.04;100.00;98720.00;4896984;29;20057;-84
2022/11/16 06:20:30;;;;;;;114.25;59.10;;;;;;;5.03;100.00;98713.16;4879939;29;20029;-84
2022/11/16 06:22:56;;;;;;;79.60;45.92;;;;;;;5.03;100.00;98708.00;4880087;29;20040;-84
2022/11/16 06:25:21;;;;;;;98.38;53.55;;;;;;;5.07;100.00;98704.41;4875456;29;20181;-84
2022/11/16 06:27:46;;;;;;;81.03;45.40;;;;;;;5.09;100.00;98696.59;4860308;29;20521;-84
2022/11/16 06:30:12;;;;;;;73.43;39.33;;;;;;;5.14;100.00;98699.81;4859820;29;20098;-84
2022/11/16 06:32:38;;;;;;;69.80;37.85;;;;;;;5.10;100.00;98685.34;4875910;29;20036;-84
2022/11/16 06:35:04;;;;;;;67.82;37.45;;;;;;;5.10;100.00;98686.22;4875790;29;20565;-84
2022/11/16 06:37:30;;;;;;;72.75;37.67;;;;;;;5.11;100.00;98690.47;4875567;29;20051;-84
2022/11/16 06:39:55;;;;;;;76.53;39.63;;;;;;;5.17;100.00;98697.13;4875723;29;20040;-84
2022/11/16 06:42:20;;;;;;;72.47;40.90;;;;;;;5.23;100.00;98700.31;4875496;29;20536;-84
2022/11/16 06:44:46;;;;;;;122.28;61.47;;;;;;;5.29;100.00;98712.13;4875607;29;20480;-84
2022/11/16 06:47:11;;;;;;;94.00;48.50;;;;;;;5.29;100.00;98706.13;4859844;29;20032;-84
2022/11/16 06:49:37;;;;;;;87.50;46.50;;;;;;;5.34;100.00;98709.34;4875661;29;20045;-84
2022/11/16 06:52:02;;;;;;;112.03;56.22;;;;;;;5.35;100.00;98717.06;4875727;29;20033;-84
2022/11/16 06:54:27;;;;;;;74.60;40.15;;;;;;;5.32;100.00;98717.16;4875330;29;20033;-84
2022/11/16 06:56:53;;;;;;;93.47;49.50;;;;;;;5.37;100.00;98720.41;4860014;29;20037;-84
2022/11/16 06:59:18;;;;;;;79.20;42.60;;;;;;;5.36;100.00;98708.41;4859755;29;20174;-84
2022/11/16 07:01:43;;;;;;;98.65;51.95;;;;;;;5.42;100.00;98721.06;4876848;29;20084;-84
2022/11/16 07:04:10;;;;;;;148.98;77.40;;;;;;;5.40;100.00;98715.13;4896780;29;20023;-84
2022/11/16 07:06:37;;;;;;;152.20;75.65;;;;;;;5.34;100.00;98707.59;4896647;29;20453;-84
2022/11/16 07:09:06;;;;;;;73.22;39.00;;;;;;;5.27;100.00;98703.63;4879730;29;20024;-84
2022/11/16 07:11:32;;;;;;;78.95;39.75;;;;;;;5.26;100.00;98714.81;4879522;29;20457;-84
2022/11/16 07:13:58;;;;;;;102.82;52.05;;;;;;;5.14;100.00;98697.22;4896559;29;20108;-83
2022/11/16 07:16:24;;;;;;;107.38;55.95;;;;;;;5.09;100.00;98696.59;4879754;29;20136;-83
2022/11/16 07:18:49;;;;;;;74.90;40.25;;;;;;;5.13;100.00;98705.88;4879977;29;20032;-84
2022/11/16 07:21:15;;;;;;;152.07;86.60;;;;;;;5.02;100.00;98692.59;4896363;29;20025;-83
2022/11/16 07:23:41;;;;;;;105.10;52.88;;;;;;;5.12;100.00;98715.38;4896271;29;20104;-83
2022/11/16 07:26:08;;;;;;;88.88;44.65;;;;;;;5.12;100.00;98714.53;4879689;29;20025;-83
2022/11/16 07:28:34;;;;;;;82.20;39.25;;;;;;;5.10;100.00;98709.44;4879188;29;20096;-83
2022/11/16 07:31:01;;;;;;;79.57;37.10;;;;;;;5.13;100.00;98717.03;4879719;29;20450;-83
2022/11/16 07:33:27;;;;;;;79.20;38.60;;;;;;;4.99;100.00;98699.53;4879430;29;20102;-84
2022/11/16 07:35:52;;;;;;;84.60;38.67;;;;;;;5.10;100.00;98721.47;4896466;29;20056;-84
2022/11/16 07:38:17;;;;;;;83.57;40.47;;;;;;;4.95;100.00;98699.72;4896424;29;20111;-83
2022/11/16 07:40:44;;;;;;;90.13;41.55;;;;;;;5.03;100.00;98720.06;4896223;29;20029;-84
2022/11/16 07:43:10;;;;;;;86.05;40.42;;;;;;;4.99;100.00;98712.44;4899841;29;20032;-83
2022/11/16 07:45:35;;;;;;;89.15;41.78;;;;;;;5.03;100.00;98720.06;4899594;29;20556;-84
2022/11/16 07:48:01;;;;;;;88.57;40.63;;;;;;;5.00;100.00;98724.44;4882823;29;20024;-84
2022/11/16 07:50:26;;;;;;;87.47;41.92;;;;;;;5.02;100.00;98714.06;4882603;29;20105;-84
2022/11/16 07:52:54;;;;;;;94.63;43.10;;;;;;;5.02;100.00;98719.22;4882741;29;20035;-84
2022/11/16 07:55:19;;;;;;;95.25;48.20;;;;;;;5.00;100.00;98726.16;4899260;29;20081;-84
2022/11/16 07:57:44;;;;;;;78.78;37.03;;;;;;;4.99;100.00;98725.34;4882394;29;20032;-84
2022/11/16 08:00:10;;;;;;;93.38;43.67;;;;;;;4.95;100.00;98710.88;4899544;29;20033;-84
2022/11/16 08:02:36;;;;;;;85.53;39.15;;;;;;;4.92;100.00;98713.56;4899068;29;20516;-83
2022/11/16 08:05:01;;;;;;;85.40;40.90;;;;;;;4.94;100.00;98722.09;4882500;29;20028;-84
2022/11/16 08:07:26;;;;;;;83.57;38.95;;;;;;;4.96;100.00;98725.44;4882167;29;20143;-83
2022/11/16 08:09:52;;;;;;;85.20;38.55;;;;;;;4.92;100.00;98725.63;4882311;29;20380;-84
2022/11/16 08:12:17;;;;;;;90.47;41.58;;;;;;;4.96;100.00;98732.34;4881991;29;20033;-83
2022/11/16 08:14:42;;;;;;;85.35;39.28;;;;;;;4.90;100.00;98719.69;4882429;29;20024;-84
2022/11/16 08:17:08;;;;;;;77.95;36.28;;;;;;;4.94;100.00;98724.69;4882360;29;20028;-84
2022/11/16 08:19:35;;;;;;;91.03;42.97;;;;;;;4.95;100.00;98738.41;4899078;29;20025;-84
2022/11/16 08:22:00;;;;;;;82.13;38.90;;;;;;;4.97;100.00;98734.03;4899026;29;20136;-84
2022/11/16 08:24:26;;;;;;;79.07;37.17;;;;;;;4.94;100.00;98724.69;4881869;29;20112;-84
2022/11/16 08:26:53;;;;;;;85.82;38.88;;;;;;;4.95;100.00;98725.50;4881925;29;20483;-84
2022/11/16 08:29:18;;;;;;;84.85;38.40;;;;;;;4.95;100.00;98725.50;4881874;29;20028;-84
2022/11/16 08:31:43;;;;;;;123.68;60.05;;;;;;;5.01;100.00;98727.84;4882183;29;20520;-83
2022/11/16 08:34:09;;;;;;;87.60;38.85;;;;;;;5.00;100.00;98729.59;4899041;29;20028;-83
2022/11/16 08:36:34;;;;;;;100.35;44.65;;;;;;;4.95;100.00;98728.94;4881815;29;20028;-84
2022/11/16 08:39:00;;;;;;;105.20;47.25;;;;;;;4.92;100.00;98715.31;4881708;29;20069;-83
2022/11/16 08:41:25;;;;;;;83.20;36.90;;;;;;;4.97;100.00;98737.47;4898342;29;20039;-84
2022/11/16 08:43:52;;;;;;;103.22;46.88;;;;;;;4.93;100.00;98732.47;4881973;29;20304;-84
2022/11/16 08:46:17;;;;;;;99.72;44.70;;;;;;;4.92;100.00;98733.38;4881696;29;20454;-83
2022/11/16 08:48:43;;;;;;;88.25;38.78;;;;;;;4.96;100.00;98735.75;4898575;29;20020;-83
2022/11/16 08:51:15;;;;;;;78.25;35.70;;;;;;;4.87;100.00;98735.28;4881715;29;20052;-83
2022/11/16 08:53:40;;;;;;;118.65;55.67;;;;;;;4.81;100.00;98732.97;4880103;29;20024;-84
2022/11/16 08:56:13;;;;;;;82.90;39.80;;;;;;;4.83;100.00;98731.13;4881491;29;20035;-83
2022/11/16 08:58:45;;;;;;;88.00;39.35;;;;;;;4.90;100.00;98754.06;4881302;29;20372;-84
2022/11/16 09:01:13;;;;;;;87.57;42.00;;;;;;;4.74;100.00;98735.75;4898378;29;20449;-84
2022/11/16 09:03:39;;;;;;;104.45;49.00;;;;;;;4.91;100.00;98757.50;4881241;29;20051;-84
2022/11/16 09:06:06;;;;;;;90.25;39.95;;;;;;;4.90;100.00;98759.25;4881281;29;20454;-84
2022/11/16 09:08:32;;;;;;;89.68;41.80;;;;;;;4.83;100.00;98762.94;4880973;29;20089;-84
2022/11/16 09:10:57;;;;;;;82.35;39.90;;;;;;;4.86;100.00;98767.16;4898252;29;20438;-84
2022/11/16 09:13:22;;;;;;;84.25;42.83;;;;;;;4.85;100.00;98762.91;4881135;29;20024;-85
2022/11/16 09:15:55;;;;;;;83.18;44.72;;;;;;;4.77;100.00;98757.19;4898156;29;20088;-85
2022/11/16 09:18:20;;;;;;;108.57;56.10;;;;;;;4.69;100.00;98750.56;4897829;29;20032;-84
2022/11/16 09:20:45;;;;;;;81.57;42.78;;;;;;;4.68;100.00;98742.91;4897876;29;20035;-85
2022/11/16 09:23:11;;;;;;;88.13;46.85;;;;;;;4.74;100.00;98756.38;4897965;29;20052;-84
2022/11/16 09:25:36;;;;;;;85.53;39.15;;;;;;;4.65;100.00;98754.16;4880861;29;20080;-84
2022/11/16 09:28:01;;;;;;;69.93;34.40;;;;;;;4.73;100.00;98756.44;4897804;29;20031;-84
2022/11/16 09:30:27;;;;;;;106.72;48.33;;;;;;;4.62;100.00;98746.53;4897485;29;20030;-84
2022/11/16 09:32:52;;;;;;;108.10;52.85;;;;;;;4.59;100.00;98753.53;4880865;29;20055;-85
2022/11/16 09:35:19;;;;;;;79.30;38.28;;;;;;;4.56;100.00;98748.50;4880825;29;20465;-85
2022/11/16 09:37:44;;;;;;;153.35;75.32;;;;;;;4.62;100.00;98740.53;4880952;29;20025;-85
2022/11/16 09:40:11;;;;;;;74.80;33.78;;;;;;;4.52;100.00;98734.88;4880892;29;20032;-85
2022/11/16 09:42:45;;;;;;;86.15;38.63;;;;;;;4.58;100.00;98757.00;4880762;29;20119;-85
2022/11/16 09:45:46;;;;;;;97.15;45.08;;;;;;;4.63;100.00;98739.63;4898327;29;20052;-85
2022/11/16 09:48:14;;;;;;;73.03;34.95;;;;;;;4.62;100.00;98737.94;4821301;29;20436;-85
2022/11/16 09:50:52;;;;;;;78.05;36.63;;;;;;;4.60;100.00;98744.91;4766795;30;20044;-85
2022/11/16 09:53:45;;;;;;;78.95;35.55;;;;;;;4.63;100.00;98749.94;4752247;30;20130;-85
2022/11/16 09:56:37;;;;;;;69.15;33.10;;;;;;;4.59;100.00;98743.19;4731680;30;20191;-84
2022/11/16 09:59:08;;;;;;;85.03;39.65;;;;;;;4.55;100.00;98739.06;4731468;30;20044;-85
2022/11/16 10:01:55;;;;;;;92.93;44.47;;;;;;;4.59;100.00;98733.72;4716669;30;20136;-85
2022/11/16 10:04:29;;;;;;;71.03;35.03;;;;;;;4.62;100.00;98728.47;4731224;30;20045;-85
2022/11/16 10:07:03;;;;;;;83.10;43.03;;;;;;;4.55;100.00;98723.59;4731526;30;20043;-84
2022/11/16 10:09:29;;;;;;;80.00;38.53;;;;;;;4.58;100.00;98715.75;4716971;30;20536;-84
2022/11/16 10:12:23;;;;;;;77.32;35.20;;;;;;;4.65;100.00;98719.78;4731336;30;20048;-84
2022/11/16 10:15:11;;;;;;;62.95;30.90;;;;;;;4.54;100.00;98709.00;4682149;30;20046;-84
2022/11/16 10:17:42;;;;;;;76.53;32.92;;;;;;;4.59;100.00;98704.53;4696392;30;20045;-84
2022/11/16 10:20:25;;;;;;;;;;;;;;;4.61;100.00;98711.31;4682440;30;20046;-84
2022/11/16 10:23:12;;;;;;;71.78;33.95;;;;;;;4.54;100.00;98702.13;4705467;30;19922;-85
2022/11/16 10:25:43;;;;;;;75.43;33.42;;;;;;;4.57;100.00;98691.69;4766425;30;20040;-84
2022/11/16 10:28:45;;;;;;;79.10;37.25;;;;;;;4.65;100.00;98684.50;4766910;30;20166;-84
2022/11/16 10:31:20;;;;;;;76.28;36.22;;;;;;;4.58;100.00;98692.53;4767019;30;20400;-84
2022/11/16 10:33:50;;;;;;;83.95;40.00;;;;;;;4.61;100.00;98697.59;4773990;30;20040;-84
2022/11/16 10:36:17;;;;;;;74.90;32.60;;;;;;;4.61;100.00;98687.28;4796533;29;20050;-85
2022/11/16 10:38:43;;;;;;;81.35;39.08;;;;;;;4.48;100.00;98669.69;4802203;29;20051;-85
2022/11/16 10:41:39;;;;;;;73.55;34.10;;;;;;;4.57;100.00;98693.44;4787354;29;20034;-85
2022/11/16 10:44:17;;;;;;;80.22;44.78;;;;;;;4.59;100.00;98681.31;4802328;29;20515;-85
2022/11/16 10:46:54;;;;;;;85.78;47.28;;;;;;;4.59;100.00;98679.56;4787077;29;20023;-84
2022/11/16 10:50:14;;;;;;;90.60;54.53;;;;;;;4.63;100.00;98680.31;4787263;29;20039;-85
2022/11/16 10:52:40;;;;;;;66.47;34.05;;;;;;;4.66;100.00;98677.63;4760095;30;20108;-84
2022/11/16 10:55:05;;;;;;;65.55;34.30;;;;;;;4.60;100.00;98681.28;4769218;30;20039;-84
2022/11/16 10:57:54;;;;;;;68.65;34.35;;;;;;;4.63;100.00;98683.72;4784013;30;20101;-84
2022/11/16 11:00:35;;;;;;;79.65;36.15;;;;;;;4.68;100.00;98693.88;4784297;29;20553;-84
2022/11/16 11:03:00;;;;;;;68.55;35.55;;;;;;;4.64;100.00;98689.75;4769261;30;20046;-84
2022/11/16 11:05:25;;;;;;;78.78;37.67;;;;;;;4.58;100.00;98683.06;4796822;29;20042;-84
2022/11/16 11:08:01;;;;;;;66.78;35.35;;;;;;;4.63;100.00;98681.13;4820426;29;20044;-84
2022/11/16 11:10:39;;;;;;;66.70;32.17;;;;;;;4.68;100.00;98686.16;4820187;29;20515;-84
2022/11/16 11:13:11;;;;;;;86.78;46.15;;;;;;;4.64;100.00;98687.16;4820365;29;20031;-84
2022/11/16 11:15:38;;;;;;;96.40;48.65;;;;;;;4.63;100.00;98686.28;4804715;29;20045;-84
2022/11/16 11:18:28;;;;;;;73.90;37.50;;;;;;;4.70;100.00;98682.59;4823478;29;20490;-85
2022/11/16 11:20:56;;;;;;;86.88;45.83;;;;;;;4.70;100.00;98682.59;4751813;30;20040;-84
2022/11/16 11:23:25;;;;;;;83.70;39.30;;;;;;;4.56;100.00;98661.66;4751737;30;20060;-85
2022/11/16 11:25:59;;;;;;;90.43;45.03;;;;;;;4.67;100.00;98664.66;4751759;30;20044;-85
2022/11/16 11:28:30;;;;;;;80.13;39.67;;;;;;;4.73;100.00;98671.31;4764490;30;20048;-85
2022/11/16 11:31:00;;;;;;;81.43;41.88;;;;;;;4.70;100.00;98668.84;4805387;29;20038;-85
2022/11/16 11:33:29;;;;;;;82.75;42.55;;;;;;;4.73;100.00;98669.59;4805423;29;20034;-84
2022/11/16 11:36:09;;;;;;;71.38;37.25;;;;;;;4.74;100.00;98652.38;4805423;29;20038;-85
2022/11/16 11:38:57;;;;;;;65.65;34.75;;;;;;;4.65;100.00;98645.81;4789909;29;20074;-85
2022/11/16 11:41:22;;;;;;;71.95;37.08;;;;;;;4.73;100.00;98667.00;4805312;29;20026;-85
2022/11/16 11:44:13;;;;;;;67.88;38.55;;;;;;;4.80;100.00;98659.00;4805273;29;20039;-85
2022/11/16 11:46:53;;;;;;;69.47;37.13;;;;;;;4.72;100.00;98654.19;4803293;29;20064;-84
2022/11/16 11:49:30;;;;;;;77.93;40.47;;;;;;;4.63;100.00;98649.34;4790064;29;20046;-85
2022/11/16 11:52:02;;;;;;;72.80;37.78;;;;;;;4.65;100.00;98656.16;4804838;29;20073;-85
2022/11/16 11:54:34;;;;;;;79.28;44.33;;;;;;;4.64;100.00;98649.31;4789711;29;20026;-85
2022/11/16 11:57:03;;;;;;;67.43;34.67;;;;;;;4.54;100.00;98647.97;4817973;29;20044;-85
2022/11/16 11:59:28;;;;;;;111.97;63.97;;;;;;;4.59;100.00;98660.69;4882459;29;20032;-85
2022/11/16 12:02:16;;;;;;;66.18;38.45;;;;;;;4.61;100.00;98659.75;4899504;29;20028;-84
2022/11/16 12:05:06;;;;;;;61.03;36.05;;;;;;;4.59;100.00;98650.38;4882320;29;20424;-84
2022/11/16 12:08:11;;;;;;;58.00;30.63;;;;;;;4.56;100.00;98642.78;4899059;29;20035;-84
2022/11/16 12:10:47;;;;;;;64.47;36.40;;;;;;;4.57;100.00;98632.38;4899212;29;20024;-84